sensor_id;sensor_type;location;lat;lon;timestamp;P1;durP1;ratioP1;P2;durP2;ratioP2
51214;SDS011;63849;47.546;19.254;2023-10-31T00:02:24;17.45;;;9.60;;
51214;SDS011;63849;47.546;19.254;2023-10-31T00:04:50;14.05;;;9.52;;
51214;SDS011;63849;47.546;19.254;2023-10-31T00:07:16;17.23;;;9.70;;
51214;SDS011;63849;47.546;19.254;2023-10-31T00:09:42;14.50;;;9.63;;
51214;SDS011;63849;47.546;19.254;2023-10-31T00:12:07;14.35;;;9.77;;
51214;SDS011;63849;47.546;19.254;2023-10-31T00:14:33;14.23;;;9.57;;
51214;SDS011;63849;47.546;19.254;2023-10-31T00:16:59;16.80;;;10.98;;
51214;SDS011;63849;47.546;19.254;2023-10-31T00:19:24;17.20;;;10.55;;
51214;SDS011;63849;47.546;19.254;2023-10-31T00:21:50;15.57;;;9.88;;
51214;SDS011;63849;47.546;19.254;2023-10-31T00:24:16;16.42;;;10.38;;
51214;SDS011;63849;47.546;19.254;2023-10-31T00:26:42;16.67;;;11.63;;
51214;SDS011;63849;47.546;19.254;2023-10-31T00:29:07;18.13;;;10.75;;
51214;SDS011;63849;47.546;19.254;2023-10-31T00:31:33;17.25;;;10.32;;
51214;SDS011;63849;47.546;19.254;2023-10-31T00:34:00;15.82;;;10.57;;
51214;SDS011;63849;47.546;19.254;2023-10-31T00:36:27;17.33;;;10.90;;
51214;SDS011;63849;47.546;19.254;2023-10-31T00:38:52;14.95;;;10.15;;
51214;SDS011;63849;47.546;19.254;2023-10-31T00:41:18;15.18;;;10.60;;
51214;SDS011;63849;47.546;19.254;2023-10-31T00:43:44;17.98;;;10.80;;
51214;SDS011;63849;47.546;19.254;2023-10-31T00:46:10;15.57;;;10.90;;
51214;SDS011;63849;47.546;19.254;2023-10-31T00:48:35;16.88;;;10.98;;
51214;SDS011;63849;47.546;19.254;2023-10-31T00:51:03;17.45;;;10.60;;
51214;SDS011;63849;47.546;19.254;2023-10-31T00:53:29;17.38;;;11.23;;
51214;SDS011;63849;47.546;19.254;2023-10-31T00:55:55;15.02;;;10.18;;
51214;SDS011;63849;47.546;19.254;2023-10-31T00:58:20;16.00;;;10.18;;
51214;SDS011;63849;47.546;19.254;2023-10-31T01:00:46;17.10;;;11.00;;
51214;SDS011;63849;47.546;19.254;2023-10-31T01:03:12;14.32;;;10.55;;
51214;SDS011;63849;47.546;19.254;2023-10-31T01:05:38;15.77;;;11.15;;
51214;SDS011;63849;47.546;19.254;2023-10-31T01:08:03;16.30;;;10.73;;
51214;SDS011;63849;47.546;19.254;2023-10-31T01:10:29;15.38;;;9.98;;
51214;SDS011;63849;47.546;19.254;2023-10-31T01:12:55;15.10;;;9.88;;
51214;SDS011;63849;47.546;19.254;2023-10-31T01:15:20;15.23;;;10.70;;
51214;SDS011;63849;47.546;19.254;2023-10-31T01:17:46;14.55;;;10.45;;
51214;SDS011;63849;47.546;19.254;2023-10-31T01:20:12;15.55;;;10.32;;
51214;SDS011;63849;47.546;19.254;2023-10-31T01:22:38;14.45;;;10.25;;
51214;SDS011;63849;47.546;19.254;2023-10-31T01:25:04;15.52;;;9.93;;
51214;SDS011;63849;47.546;19.254;2023-10-31T01:27:30;14.05;;;10.13;;
51214;SDS011;63849;47.546;19.254;2023-10-31T01:29:56;13.43;;;10.30;;
51214;SDS011;63849;47.546;19.254;2023-10-31T01:32:21;13.98;;;9.40;;
51214;SDS011;63849;47.546;19.254;2023-10-31T01:34:47;16.38;;;10.02;;
51214;SDS011;63849;47.546;19.254;2023-10-31T01:37:13;16.52;;;9.88;;
51214;SDS011;63849;47.546;19.254;2023-10-31T01:39:39;12.95;;;9.60;;
51214;SDS011;63849;47.546;19.254;2023-10-31T01:42:06;16.63;;;9.57;;
51214;SDS011;63849;47.546;19.254;2023-10-31T01:44:31;17.40;;;10.50;;
51214;SDS011;63849;47.546;19.254;2023-10-31T01:46:57;16.38;;;9.77;;
51214;SDS011;63849;47.546;19.254;2023-10-31T01:49:23;13.23;;;9.98;;
51214;SDS011;63849;47.546;19.254;2023-10-31T01:51:49;17.13;;;10.27;;
51214;SDS011;63849;47.546;19.254;2023-10-31T01:54:15;14.23;;;9.95;;
51214;SDS011;63849;47.546;19.254;2023-10-31T01:56:42;15.68;;;10.15;;
51214;SDS011;63849;47.546;19.254;2023-10-31T01:59:09;16.85;;;10.48;;
51214;SDS011;63849;47.546;19.254;2023-10-31T02:01:38;16.23;;;9.75;;
51214;SDS011;63849;47.546;19.254;2023-10-31T02:04:07;14.47;;;9.07;;
51214;SDS011;63849;47.546;19.254;2023-10-31T02:06:33;12.70;;;9.45;;
51214;SDS011;63849;47.546;19.254;2023-10-31T02:08:58;12.15;;;8.90;;
51214;SDS011;63849;47.546;19.254;2023-10-31T02:11:24;16.60;;;9.05;;
51214;SDS011;63849;47.546;19.254;2023-10-31T02:13:50;14.90;;;9.10;;
51214;SDS011;63849;47.546;19.254;2023-10-31T02:16:15;11.52;;;9.25;;
51214;SDS011;63849;47.546;19.254;2023-10-31T02:18:42;16.50;;;9.30;;
51214;SDS011;63849;47.546;19.254;2023-10-31T02:21:07;13.57;;;9.05;;
51214;SDS011;63849;47.546;19.254;2023-10-31T02:23:33;12.85;;;9.07;;
51214;SDS011;63849;47.546;19.254;2023-10-31T02:25:59;13.05;;;9.00;;
51214;SDS011;63849;47.546;19.254;2023-10-31T02:28:25;13.73;;;8.73;;
51214;SDS011;63849;47.546;19.254;2023-10-31T02:30:53;11.95;;;8.32;;
51214;SDS011;63849;47.546;19.254;2023-10-31T02:33:22;14.65;;;8.45;;
51214;SDS011;63849;47.546;19.254;2023-10-31T02:35:48;14.50;;;8.15;;
51214;SDS011;63849;47.546;19.254;2023-10-31T02:38:13;15.10;;;9.07;;
51214;SDS011;63849;47.546;19.254;2023-10-31T02:40:39;10.98;;;7.30;;
51214;SDS011;63849;47.546;19.254;2023-10-31T02:43:05;13.40;;;8.20;;
51214;SDS011;63849;47.546;19.254;2023-10-31T02:45:31;12.55;;;8.52;;
51214;SDS011;63849;47.546;19.254;2023-10-31T02:47:57;12.52;;;8.15;;
51214;SDS011;63849;47.546;19.254;2023-10-31T02:50:22;11.43;;;8.00;;
51214;SDS011;63849;47.546;19.254;2023-10-31T02:52:48;14.32;;;8.48;;
51214;SDS011;63849;47.546;19.254;2023-10-31T02:55:14;11.32;;;7.97;;
51214;SDS011;63849;47.546;19.254;2023-10-31T02:57:39;12.32;;;8.25;;
51214;SDS011;63849;47.546;19.254;2023-10-31T03:00:05;12.75;;;8.15;;
51214;SDS011;63849;47.546;19.254;2023-10-31T03:02:32;11.85;;;8.32;;
51214;SDS011;63849;47.546;19.254;2023-10-31T03:04:57;10.85;;;8.10;;
51214;SDS011;63849;47.546;19.254;2023-10-31T03:07:23;11.68;;;7.57;;
51214;SDS011;63849;47.546;19.254;2023-10-31T03:09:49;11.60;;;7.70;;
51214;SDS011;63849;47.546;19.254;2023-10-31T03:12:14;11.77;;;7.78;;
51214;SDS011;63849;47.546;19.254;2023-10-31T03:14:40;9.15;;;6.95;;
51214;SDS011;63849;47.546;19.254;2023-10-31T03:17:06;9.27;;;7.05;;
51214;SDS011;63849;47.546;19.254;2023-10-31T03:19:32;10.45;;;6.88;;
51214;SDS011;63849;47.546;19.254;2023-10-31T03:21:58;10.70;;;7.07;;
51214;SDS011;63849;47.546;19.254;2023-10-31T03:24:23;9.85;;;7.57;;
51214;SDS011;63849;47.546;19.254;2023-10-31T03:26:49;8.45;;;6.72;;
51214;SDS011;63849;47.546;19.254;2023-10-31T03:29:15;11.13;;;6.72;;
51214;SDS011;63849;47.546;19.254;2023-10-31T03:31:40;11.18;;;6.55;;
51214;SDS011;63849;47.546;19.254;2023-10-31T03:34:06;8.40;;;6.70;;
51214;SDS011;63849;47.546;19.254;2023-10-31T03:36:32;9.98;;;6.65;;
51214;SDS011;63849;47.546;19.254;2023-10-31T03:38:58;9.80;;;6.70;;
51214;SDS011;63849;47.546;19.254;2023-10-31T03:41:24;11.73;;;7.50;;
51214;SDS011;63849;47.546;19.254;2023-10-31T03:43:50;10.10;;;6.40;;
51214;SDS011;63849;47.546;19.254;2023-10-31T03:46:15;8.98;;;6.68;;
51214;SDS011;63849;47.546;19.254;2023-10-31T03:48:41;9.00;;;6.65;;
51214;SDS011;63849;47.546;19.254;2023-10-31T03:51:07;9.52;;;6.50;;
51214;SDS011;63849;47.546;19.254;2023-10-31T03:53:33;10.43;;;6.07;;
51214;SDS011;63849;47.546;19.254;2023-10-31T03:55:59;11.18;;;6.80;;
51214;SDS011;63849;47.546;19.254;2023-10-31T03:58:25;7.65;;;5.85;;
51214;SDS011;63849;47.546;19.254;2023-10-31T04:00:51;10.20;;;6.38;;
51214;SDS011;63849;47.546;19.254;2023-10-31T04:03:16;9.13;;;6.40;;
51214;SDS011;63849;47.546;19.254;2023-10-31T04:05:42;10.45;;;6.47;;
51214;SDS011;63849;47.546;19.254;2023-10-31T04:08:08;8.50;;;6.80;;
51214;SDS011;63849;47.546;19.254;2023-10-31T04:10:34;7.78;;;6.55;;
51214;SDS011;63849;47.546;19.254;2023-10-31T04:12:59;11.15;;;6.10;;
51214;SDS011;63849;47.546;19.254;2023-10-31T04:15:25;10.88;;;6.72;;
51214;SDS011;63849;47.546;19.254;2023-10-31T04:17:51;7.97;;;6.30;;
51214;SDS011;63849;47.546;19.254;2023-10-31T04:20:16;9.88;;;6.68;;
51214;SDS011;63849;47.546;19.254;2023-10-31T04:22:42;8.80;;;6.32;;
51214;SDS011;63849;47.546;19.254;2023-10-31T04:25:08;10.60;;;6.43;;
51214;SDS011;63849;47.546;19.254;2023-10-31T04:27:34;13.65;;;6.57;;
51214;SDS011;63849;47.546;19.254;2023-10-31T04:29:59;11.05;;;6.53;;
51214;SDS011;63849;47.546;19.254;2023-10-31T04:32:26;13.63;;;6.38;;
51214;SDS011;63849;47.546;19.254;2023-10-31T04:34:52;9.93;;;6.53;;
51214;SDS011;63849;47.546;19.254;2023-10-31T04:37:17;9.48;;;5.72;;
51214;SDS011;63849;47.546;19.254;2023-10-31T04:39:43;11.13;;;6.28;;
51214;SDS011;63849;47.546;19.254;2023-10-31T04:42:09;8.30;;;6.32;;
51214;SDS011;63849;47.546;19.254;2023-10-31T04:44:35;8.20;;;5.68;;
51214;SDS011;63849;47.546;19.254;2023-10-31T04:47:00;8.82;;;5.95;;
51214;SDS011;63849;47.546;19.254;2023-10-31T04:49:26;9.70;;;5.43;;
51214;SDS011;63849;47.546;19.254;2023-10-31T04:51:52;10.40;;;5.28;;
51214;SDS011;63849;47.546;19.254;2023-10-31T04:54:18;7.13;;;5.47;;
51214;SDS011;63849;47.546;19.254;2023-10-31T04:56:43;10.68;;;5.40;;
51214;SDS011;63849;47.546;19.254;2023-10-31T04:59:09;5.95;;;4.68;;
51214;SDS011;63849;47.546;19.254;2023-10-31T05:01:35;8.75;;;4.95;;
51214;SDS011;63849;47.546;19.254;2023-10-31T05:04:01;8.32;;;4.70;;
51214;SDS011;63849;47.546;19.254;2023-10-31T05:06:27;12.68;;;5.15;;
51214;SDS011;63849;47.546;19.254;2023-10-31T05:08:53;9.23;;;5.47;;
51214;SDS011;63849;47.546;19.254;2023-10-31T05:11:18;9.00;;;5.10;;
51214;SDS011;63849;47.546;19.254;2023-10-31T05:13:45;8.38;;;4.97;;
51214;SDS011;63849;47.546;19.254;2023-10-31T05:16:11;9.95;;;5.68;;
51214;SDS011;63849;47.546;19.254;2023-10-31T05:18:37;8.45;;;5.32;;
51214;SDS011;63849;47.546;19.254;2023-10-31T05:21:03;6.30;;;4.68;;
51214;SDS011;63849;47.546;19.254;2023-10-31T05:23:30;7.15;;;5.28;;
51214;SDS011;63849;47.546;19.254;2023-10-31T05:25:56;9.10;;;5.10;;
51214;SDS011;63849;47.546;19.254;2023-10-31T05:28:21;7.18;;;5.07;;
51214;SDS011;63849;47.546;19.254;2023-10-31T05:30:48;7.65;;;4.70;;
51214;SDS011;63849;47.546;19.254;2023-10-31T05:33:14;7.07;;;4.82;;
51214;SDS011;63849;47.546;19.254;2023-10-31T05:35:41;8.85;;;4.68;;
51214;SDS011;63849;47.546;19.254;2023-10-31T05:38:06;9.95;;;4.93;;
51214;SDS011;63849;47.546;19.254;2023-10-31T05:40:32;7.88;;;4.53;;
51214;SDS011;63849;47.546;19.254;2023-10-31T05:43:00;7.75;;;4.85;;
51214;SDS011;63849;47.546;19.254;2023-10-31T05:45:27;7.95;;;4.18;;
51214;SDS011;63849;47.546;19.254;2023-10-31T05:47:53;7.28;;;4.55;;
51214;SDS011;63849;47.546;19.254;2023-10-31T05:50:19;7.20;;;4.93;;
51214;SDS011;63849;47.546;19.254;2023-10-31T05:52:47;9.90;;;4.88;;
51214;SDS011;63849;47.546;19.254;2023-10-31T05:55:13;9.07;;;5.45;;
51214;SDS011;63849;47.546;19.254;2023-10-31T05:57:39;6.28;;;4.57;;
51214;SDS011;63849;47.546;19.254;2023-10-31T06:00:05;8.05;;;4.72;;
51214;SDS011;63849;47.546;19.254;2023-10-31T06:02:32;7.43;;;5.40;;
51214;SDS011;63849;47.546;19.254;2023-10-31T06:04:58;8.60;;;5.15;;
51214;SDS011;63849;47.546;19.254;2023-10-31T06:07:24;5.90;;;4.60;;
51214;SDS011;63849;47.546;19.254;2023-10-31T06:09:49;5.45;;;4.57;;
51214;SDS011;63849;47.546;19.254;2023-10-31T06:12:15;8.23;;;5.07;;
51214;SDS011;63849;47.546;19.254;2023-10-31T06:14:41;9.75;;;4.40;;
51214;SDS011;63849;47.546;19.254;2023-10-31T06:17:07;10.02;;;5.07;;
51214;SDS011;63849;47.546;19.254;2023-10-31T06:19:36;8.63;;;4.82;;
51214;SDS011;63849;47.546;19.254;2023-10-31T06:22:02;8.73;;;4.38;;
51214;SDS011;63849;47.546;19.254;2023-10-31T06:24:28;10.48;;;4.38;;
51214;SDS011;63849;47.546;19.254;2023-10-31T06:26:54;11.13;;;5.95;;
51214;SDS011;63849;47.546;19.254;2023-10-31T06:29:20;11.10;;;6.10;;
51214;SDS011;63849;47.546;19.254;2023-10-31T06:31:45;12.30;;;6.68;;
51214;SDS011;63849;47.546;19.254;2023-10-31T06:34:11;10.60;;;7.05;;
51214;SDS011;63849;47.546;19.254;2023-10-31T06:36:37;13.15;;;10.48;;
51214;SDS011;63849;47.546;19.254;2023-10-31T06:39:02;11.07;;;7.68;;
51214;SDS011;63849;47.546;19.254;2023-10-31T06:41:28;9.00;;;6.63;;
51214;SDS011;63849;47.546;19.254;2023-10-31T06:43:54;9.35;;;5.93;;
51214;SDS011;63849;47.546;19.254;2023-10-31T06:46:20;8.15;;;4.65;;
51214;SDS011;63849;47.546;19.254;2023-10-31T06:48:45;10.82;;;5.55;;
51214;SDS011;63849;47.546;19.254;2023-10-31T06:51:11;4.97;;;4.07;;
51214;SDS011;63849;47.546;19.254;2023-10-31T06:53:37;6.20;;;3.40;;
51214;SDS011;63849;47.546;19.254;2023-10-31T06:56:02;4.75;;;3.30;;
51214;SDS011;63849;47.546;19.254;2023-10-31T06:58:28;7.40;;;3.33;;
51214;SDS011;63849;47.546;19.254;2023-10-31T07:00:54;6.70;;;2.95;;
51214;SDS011;63849;47.546;19.254;2023-10-31T07:03:23;5.28;;;3.20;;
51214;SDS011;63849;47.546;19.254;2023-10-31T07:05:49;5.65;;;3.70;;
51214;SDS011;63849;47.546;19.254;2023-10-31T07:08:15;6.53;;;3.03;;
51214;SDS011;63849;47.546;19.254;2023-10-31T07:10:40;6.18;;;3.25;;
51214;SDS011;63849;47.546;19.254;2023-10-31T07:13:06;7.43;;;3.85;;
51214;SDS011;63849;47.546;19.254;2023-10-31T07:15:32;6.13;;;3.42;;
51214;SDS011;63849;47.546;19.254;2023-10-31T07:17:57;9.02;;;3.55;;
51214;SDS011;63849;47.546;19.254;2023-10-31T07:20:23;3.85;;;2.92;;
51214;SDS011;63849;47.546;19.254;2023-10-31T07:22:49;5.43;;;3.15;;
51214;SDS011;63849;47.546;19.254;2023-10-31T07:25:17;7.38;;;3.40;;
51214;SDS011;63849;47.546;19.254;2023-10-31T07:27:43;5.25;;;3.20;;
51214;SDS011;63849;47.546;19.254;2023-10-31T07:30:09;5.15;;;3.13;;
51214;SDS011;63849;47.546;19.254;2023-10-31T07:32:35;5.20;;;2.83;;
51214;SDS011;63849;47.546;19.254;2023-10-31T07:35:01;5.60;;;2.72;;
51214;SDS011;63849;47.546;19.254;2023-10-31T07:37:27;5.93;;;2.88;;
51214;SDS011;63849;47.546;19.254;2023-10-31T07:39:53;5.60;;;3.78;;
51214;SDS011;63849;47.546;19.254;2023-10-31T07:42:19;7.28;;;3.25;;
51214;SDS011;63849;47.546;19.254;2023-10-31T07:44:44;4.40;;;2.92;;
51214;SDS011;63849;47.546;19.254;2023-10-31T07:47:10;10.05;;;3.88;;
51214;SDS011;63849;47.546;19.254;2023-10-31T07:49:36;4.80;;;3.40;;
51214;SDS011;63849;47.546;19.254;2023-10-31T07:52:01;5.43;;;3.50;;
51214;SDS011;63849;47.546;19.254;2023-10-31T07:54:27;8.00;;;3.80;;
51214;SDS011;63849;47.546;19.254;2023-10-31T07:56:53;7.03;;;3.58;;
51214;SDS011;63849;47.546;19.254;2023-10-31T07:59:20;6.18;;;3.45;;
51214;SDS011;63849;47.546;19.254;2023-10-31T08:01:46;5.10;;;3.08;;
51214;SDS011;63849;47.546;19.254;2023-10-31T08:04:13;6.55;;;3.05;;
51214;SDS011;63849;47.546;19.254;2023-10-31T08:06:40;4.93;;;2.97;;
51214;SDS011;63849;47.546;19.254;2023-10-31T08:09:06;7.95;;;3.88;;
51214;SDS011;63849;47.546;19.254;2023-10-31T08:11:31;5.03;;;3.60;;
51214;SDS011;63849;47.546;19.254;2023-10-31T08:13:59;6.35;;;2.78;;
51214;SDS011;63849;47.546;19.254;2023-10-31T08:16:25;7.40;;;3.42;;
51214;SDS011;63849;47.546;19.254;2023-10-31T08:18:51;7.82;;;3.30;;
51214;SDS011;63849;47.546;19.254;2023-10-31T08:21:17;6.55;;;3.42;;
51214;SDS011;63849;47.546;19.254;2023-10-31T08:23:43;6.07;;;3.00;;
51214;SDS011;63849;47.546;19.254;2023-10-31T08:26:11;4.60;;;2.50;;
51214;SDS011;63849;47.546;19.254;2023-10-31T08:28:37;6.50;;;2.60;;
51214;SDS011;63849;47.546;19.254;2023-10-31T08:31:03;3.88;;;2.58;;
51214;SDS011;63849;47.546;19.254;2023-10-31T08:33:29;5.88;;;2.72;;
51214;SDS011;63849;47.546;19.254;2023-10-31T08:35:55;7.10;;;2.88;;
51214;SDS011;63849;47.546;19.254;2023-10-31T08:38:21;6.25;;;2.80;;
51214;SDS011;63849;47.546;19.254;2023-10-31T08:40:46;6.80;;;3.15;;
51214;SDS011;63849;47.546;19.254;2023-10-31T08:43:14;4.88;;;3.08;;
51214;SDS011;63849;47.546;19.254;2023-10-31T08:45:40;5.95;;;3.10;;
51214;SDS011;63849;47.546;19.254;2023-10-31T08:48:05;5.00;;;2.92;;
51214;SDS011;63849;47.546;19.254;2023-10-31T08:50:31;6.60;;;2.53;;
51214;SDS011;63849;47.546;19.254;2023-10-31T08:52:57;6.97;;;2.70;;
51214;SDS011;63849;47.546;19.254;2023-10-31T08:55:22;5.43;;;3.05;;
51214;SDS011;63849;47.546;19.254;2023-10-31T08:57:48;6.40;;;2.25;;
51214;SDS011;63849;47.546;19.254;2023-10-31T09:00:14;4.13;;;2.30;;
51214;SDS011;63849;47.546;19.254;2023-10-31T09:02:40;6.10;;;2.67;;
51214;SDS011;63849;47.546;19.254;2023-10-31T09:05:06;3.00;;;2.10;;
51214;SDS011;63849;47.546;19.254;2023-10-31T09:07:32;8.05;;;2.40;;
51214;SDS011;63849;47.546;19.254;2023-10-31T09:09:57;2.63;;;2.13;;
51214;SDS011;63849;47.546;19.254;2023-10-31T09:12:23;4.32;;;2.42;;
51214;SDS011;63849;47.546;19.254;2023-10-31T09:14:49;3.80;;;2.30;;
51214;SDS011;63849;47.546;19.254;2023-10-31T09:17:15;7.72;;;2.45;;
51214;SDS011;63849;47.546;19.254;2023-10-31T09:19:40;7.07;;;2.40;;
51214;SDS011;63849;47.546;19.254;2023-10-31T09:22:06;5.00;;;2.53;;
51214;SDS011;63849;47.546;19.254;2023-10-31T09:24:33;4.18;;;2.03;;
51214;SDS011;63849;47.546;19.254;2023-10-31T09:26:58;4.57;;;2.28;;
51214;SDS011;63849;47.546;19.254;2023-10-31T09:29:24;9.48;;;2.40;;
51214;SDS011;63849;47.546;19.254;2023-10-31T09:31:50;3.80;;;2.13;;
51214;SDS011;63849;47.546;19.254;2023-10-31T09:34:15;3.95;;;2.55;;
51214;SDS011;63849;47.546;19.254;2023-10-31T09:36:43;4.38;;;2.60;;
51214;SDS011;63849;47.546;19.254;2023-10-31T09:39:08;4.18;;;2.30;;
51214;SDS011;63849;47.546;19.254;2023-10-31T09:41:34;3.72;;;2.30;;
51214;SDS011;63849;47.546;19.254;2023-10-31T09:44:00;3.72;;;2.67;;
51214;SDS011;63849;47.546;19.254;2023-10-31T09:46:28;6.43;;;2.78;;
51214;SDS011;63849;47.546;19.254;2023-10-31T09:48:54;4.47;;;2.38;;
51214;SDS011;63849;47.546;19.254;2023-10-31T09:51:21;6.00;;;2.63;;
51214;SDS011;63849;47.546;19.254;2023-10-31T09:53:46;4.68;;;2.38;;
51214;SDS011;63849;47.546;19.254;2023-10-31T09:56:13;4.15;;;2.45;;
51214;SDS011;63849;47.546;19.254;2023-10-31T09:58:40;5.88;;;2.33;;
51214;SDS011;63849;47.546;19.254;2023-10-31T10:01:06;6.35;;;2.38;;
51214;SDS011;63849;47.546;19.254;2023-10-31T10:03:32;5.32;;;2.72;;
51214;SDS011;63849;47.546;19.254;2023-10-31T10:05:59;6.38;;;2.75;;
51214;SDS011;63849;47.546;19.254;2023-10-31T10:08:27;5.82;;;2.63;;
51214;SDS011;63849;47.546;19.254;2023-10-31T10:10:52;5.65;;;2.95;;
51214;SDS011;63849;47.546;19.254;2023-10-31T10:13:20;5.75;;;2.65;;
51214;SDS011;63849;47.546;19.254;2023-10-31T10:15:46;4.18;;;2.55;;
51214;SDS011;63849;47.546;19.254;2023-10-31T10:18:53;5.28;;;2.10;;
51214;SDS011;63849;47.546;19.254;2023-10-31T10:21:12;6.75;;;2.80;;
51214;SDS011;63849;47.546;19.254;2023-10-31T10:23:38;7.68;;;2.70;;
51214;SDS011;63849;47.546;19.254;2023-10-31T10:26:03;4.60;;;2.22;;
51214;SDS011;63849;47.546;19.254;2023-10-31T10:28:29;2.53;;;1.88;;
51214;SDS011;63849;47.546;19.254;2023-10-31T10:30:55;3.75;;;2.13;;
51214;SDS011;63849;47.546;19.254;2023-10-31T10:33:21;4.03;;;2.25;;
51214;SDS011;63849;47.546;19.254;2023-10-31T10:35:47;5.55;;;2.53;;
51214;SDS011;63849;47.546;19.254;2023-10-31T10:38:17;3.75;;;2.35;;
51214;SDS011;63849;47.546;19.254;2023-10-31T10:40:47;4.13;;;2.08;;
51214;SDS011;63849;47.546;19.254;2023-10-31T10:43:26;4.00;;;2.05;;
51214;SDS011;63849;47.546;19.254;2023-10-31T10:45:57;2.97;;;2.00;;
51214;SDS011;63849;47.546;19.254;2023-10-31T10:48:24;3.30;;;1.88;;
51214;SDS011;63849;47.546;19.254;2023-10-31T10:50:57;3.90;;;2.05;;
51214;SDS011;63849;47.546;19.254;2023-10-31T10:53:34;4.22;;;1.55;;
51214;SDS011;63849;47.546;19.254;2023-10-31T10:56:09;3.78;;;2.15;;
51214;SDS011;63849;47.546;19.254;2023-10-31T10:58:45;4.35;;;1.70;;
51214;SDS011;63849;47.546;19.254;2023-10-31T11:01:24;2.85;;;1.73;;
51214;SDS011;63849;47.546;19.254;2023-10-31T11:03:52;6.00;;;2.38;;
51214;SDS011;63849;47.546;19.254;2023-10-31T11:06:22;4.70;;;1.95;;
51214;SDS011;63849;47.546;19.254;2023-10-31T11:08:49;5.45;;;2.45;;
51214;SDS011;63849;47.546;19.254;2023-10-31T11:11:17;4.07;;;1.80;;
51214;SDS011;63849;47.546;19.254;2023-10-31T11:13:45;5.00;;;2.70;;
51214;SDS011;63849;47.546;19.254;2023-10-31T11:16:19;4.40;;;1.80;;
51214;SDS011;63849;47.546;19.254;2023-10-31T11:18:51;4.38;;;1.90;;
51214;SDS011;63849;47.546;19.254;2023-10-31T11:21:18;3.17;;;1.88;;
51214;SDS011;63849;47.546;19.254;2023-10-31T11:23:43;3.67;;;1.80;;
51214;SDS011;63849;47.546;19.254;2023-10-31T11:26:09;4.22;;;2.25;;
51214;SDS011;63849;47.546;19.254;2023-10-31T11:28:35;3.60;;;2.20;;
51214;SDS011;63849;47.546;19.254;2023-10-31T11:31:01;4.90;;;2.58;;
51214;SDS011;63849;47.546;19.254;2023-10-31T11:33:28;8.35;;;2.67;;
51214;SDS011;63849;47.546;19.254;2023-10-31T11:36:01;3.75;;;2.22;;
51214;SDS011;63849;47.546;19.254;2023-10-31T11:38:32;5.43;;;2.20;;
51214;SDS011;63849;47.546;19.254;2023-10-31T11:41:00;3.78;;;2.05;;
51214;SDS011;63849;47.546;19.254;2023-10-31T11:46:05;3.70;;;2.22;;
51214;SDS011;63849;47.546;19.254;2023-10-31T11:48:47;3.53;;;2.13;;
51214;SDS011;63849;47.546;19.254;2023-10-31T11:53:42;4.32;;;2.50;;
51214;SDS011;63849;47.546;19.254;2023-10-31T11:56:12;4.22;;;2.10;;
51214;SDS011;63849;47.546;19.254;2023-10-31T11:58:37;4.45;;;2.05;;
51214;SDS011;63849;47.546;19.254;2023-10-31T12:01:04;4.50;;;2.28;;
51214;SDS011;63849;47.546;19.254;2023-10-31T12:06:09;4.22;;;2.25;;
51214;SDS011;63849;47.546;19.254;2023-10-31T12:08:36;5.95;;;1.98;;
51214;SDS011;63849;47.546;19.254;2023-10-31T12:13:30;4.53;;;2.88;;
51214;SDS011;63849;47.546;19.254;2023-10-31T12:15:56;4.75;;;2.47;;
51214;SDS011;63849;47.546;19.254;2023-10-31T12:18:22;6.47;;;2.60;;
51214;SDS011;63849;47.546;19.254;2023-10-31T12:20:48;4.38;;;2.95;;
51214;SDS011;63849;47.546;19.254;2023-10-31T12:23:15;8.57;;;3.40;;
51214;SDS011;63849;47.546;19.254;2023-10-31T12:25:48;6.70;;;3.53;;
51214;SDS011;63849;47.546;19.254;2023-10-31T12:28:18;7.00;;;2.95;;
51214;SDS011;63849;47.546;19.254;2023-10-31T12:30:45;7.78;;;3.75;;
51214;SDS011;63849;47.546;19.254;2023-10-31T12:33:12;16.77;;;4.82;;
51214;SDS011;63849;47.546;19.254;2023-10-31T12:35:37;8.27;;;3.70;;
51214;SDS011;63849;47.546;19.254;2023-10-31T12:38:04;12.18;;;4.03;;
51214;SDS011;63849;47.546;19.254;2023-10-31T12:40:31;12.38;;;6.03;;
51214;SDS011;63849;47.546;19.254;2023-10-31T12:42:57;17.08;;;9.43;;
51214;SDS011;63849;47.546;19.254;2023-10-31T12:45:24;19.80;;;10.35;;
51214;SDS011;63849;47.546;19.254;2023-10-31T12:48:03;14.00;;;10.15;;
51214;SDS011;63849;47.546;19.254;2023-10-31T12:50:32;14.95;;;9.68;;
51214;SDS011;63849;47.546;19.254;2023-10-31T12:52:59;14.52;;;8.23;;
51214;SDS011;63849;47.546;19.254;2023-10-31T12:55:26;15.55;;;8.70;;
51214;SDS011;63849;47.546;19.254;2023-10-31T12:57:56;12.50;;;8.45;;
51214;SDS011;63849;47.546;19.254;2023-10-31T13:00:29;15.52;;;9.20;;
51214;SDS011;63849;47.546;19.254;2023-10-31T13:03:04;12.70;;;7.90;;
51214;SDS011;63849;47.546;19.254;2023-10-31T13:05:31;12.05;;;8.90;;
51214;SDS011;63849;47.546;19.254;2023-10-31T13:07:58;11.07;;;8.07;;
51214;SDS011;63849;47.546;19.254;2023-10-31T13:10:26;17.88;;;7.97;;
51214;SDS011;63849;47.546;19.254;2023-10-31T13:12:53;9.93;;;7.85;;
51214;SDS011;63849;47.546;19.254;2023-10-31T13:15:20;10.25;;;7.50;;
51214;SDS011;63849;47.546;19.254;2023-10-31T13:17:47;13.02;;;8.10;;
51214;SDS011;63849;47.546;19.254;2023-10-31T13:20:15;10.65;;;7.55;;
51214;SDS011;63849;47.546;19.254;2023-10-31T13:22:42;8.48;;;7.35;;
51214;SDS011;63849;47.546;19.254;2023-10-31T13:25:09;12.50;;;7.38;;
51214;SDS011;63849;47.546;19.254;2023-10-31T13:27:37;9.82;;;7.15;;
51214;SDS011;63849;47.546;19.254;2023-10-31T13:30:08;15.15;;;7.57;;
51214;SDS011;63849;47.546;19.254;2023-10-31T13:32:39;13.18;;;7.38;;
51214;SDS011;63849;47.546;19.254;2023-10-31T13:35:08;9.13;;;7.55;;
51214;SDS011;63849;47.546;19.254;2023-10-31T13:37:39;10.38;;;8.10;;
51214;SDS011;63849;47.546;19.254;2023-10-31T13:40:05;8.40;;;7.53;;
51214;SDS011;63849;47.546;19.254;2023-10-31T13:42:33;8.35;;;7.43;;
51214;SDS011;63849;47.546;19.254;2023-10-31T13:44:59;10.27;;;7.03;;
51214;SDS011;63849;47.546;19.254;2023-10-31T13:47:25;14.35;;;8.35;;
51214;SDS011;63849;47.546;19.254;2023-10-31T13:49:51;8.82;;;7.07;;
51214;SDS011;63849;47.546;19.254;2023-10-31T13:52:16;11.63;;;7.82;;
51214;SDS011;63849;47.546;19.254;2023-10-31T13:54:42;11.90;;;8.68;;
51214;SDS011;63849;47.546;19.254;2023-10-31T13:57:08;15.70;;;9.75;;
51214;SDS011;63849;47.546;19.254;2023-10-31T13:59:34;20.98;;;15.40;;
51214;SDS011;63849;47.546;19.254;2023-10-31T14:02:00;15.43;;;13.65;;
51214;SDS011;63849;47.546;19.254;2023-10-31T14:04:26;14.68;;;12.50;;
51214;SDS011;63849;47.546;19.254;2023-10-31T14:06:53;15.10;;;12.68;;
51214;SDS011;63849;47.546;19.254;2023-10-31T14:09:19;14.25;;;10.65;;
51214;SDS011;63849;47.546;19.254;2023-10-31T14:11:46;9.90;;;8.15;;
51214;SDS011;63849;47.546;19.254;2023-10-31T14:14:11;19.50;;;17.08;;
51214;SDS011;63849;47.546;19.254;2023-10-31T14:16:38;12.60;;;10.85;;
51214;SDS011;63849;47.546;19.254;2023-10-31T14:19:05;12.15;;;9.80;;
51214;SDS011;63849;47.546;19.254;2023-10-31T14:21:32;10.00;;;7.60;;
51214;SDS011;63849;47.546;19.254;2023-10-31T14:24:01;12.57;;;10.00;;
51214;SDS011;63849;47.546;19.254;2023-10-31T14:26:28;4.63;;;3.60;;
51214;SDS011;63849;47.546;19.254;2023-10-31T14:28:55;4.65;;;3.53;;
51214;SDS011;63849;47.546;19.254;2023-10-31T14:31:21;6.95;;;4.20;;
51214;SDS011;63849;47.546;19.254;2023-10-31T14:33:47;7.00;;;4.18;;
51214;SDS011;63849;47.546;19.254;2023-10-31T14:36:13;8.40;;;6.18;;